Time;durP1;ratioP1;P1;durP2;ratioP2;P2;SDS_P1;SDS_P2;PMS_P1;PMS_P2;Temp;Humidity;BMP_temperature;BMP_pressure;BME280_temperature;BME280_humidity;BME280_pressure;Samples;Min_cycle;Max_cycle;Signal;HPM_P1;HPM_P2
2021/07/19 00:00:44;;;;;;;;;20.40;19.00;;;;;27.25;54.18;98603.59;6073395;28;96661;-65
2021/07/19 00:03:47;;;;;;;;;22.00;21.40;;;;;27.17;54.76;98602.53;6065696;28;96757;-65
2021/07/19 00:06:51;;;;;;;;;22.00;20.60;;;;;27.01;54.57;98585.72;6081887;28;97059;-64
2021/07/19 00:09:56;;;;;;;;;20.00;19.00;;;;;27.09;54.45;98614.44;6041855;28;96611;-65
2021/07/19 00:12:59;;;;;;;;;22.40;21.40;;;;;27.02;55.04;98608.66;6074311;28;96945;-66
2021/07/19 00:16:03;;;;;;;;;22.80;21.00;;;;;27.00;55.08;98608.97;6079659;28;97462;-66
2021/07/19 00:19:06;;;;;;;;;23.00;20.00;;;;;27.01;54.50;98620.88;6084402;28;96813;-66
2021/07/19 00:22:10;;;;;;;;;20.40;19.40;;;;;27.03;54.53;98619.38;6069195;28;97787;-64
2021/07/19 00:25:18;;;;;;;;;22.00;20.00;;;;;27.00;54.46;98619.25;6074381;28;96718;-65
2021/07/19 00:28:21;;;;;;;;;20.75;18.00;;;;;26.99;54.31;98632.25;6064673;28;96828;-65
2021/07/19 00:31:25;;;;;;;;;21.00;19.50;;;;;26.94;54.56;98631.63;6074060;28;97330;-66
2021/07/19 00:34:35;;;;;;;;;22.40;19.00;;;;;26.87;54.79;98626.66;6076480;28;98163;-64
2021/07/19 00:37:38;;;;;;;;;21.00;20.00;;;;;26.89;54.39;98638.19;6064310;28;96508;-65
2021/07/19 00:40:43;;;;;;;;;22.00;20.00;;;;;26.92;54.58;98629.22;6047922;28;97954;-65
2021/07/19 00:43:52;;;;;;;;;23.00;19.25;;;;;26.89;54.14;98627.09;6081904;28;97247;-65
2021/07/19 00:46:56;;;;;;;;;25.60;23.00;;;;;26.89;54.21;98620.75;6064500;28;97316;-65
2021/07/19 00:50:00;;;;;;;;;21.00;18.80;;;;;26.90;54.84;98616.84;6070680;28;98098;-65
2021/07/19 00:53:07;;;;;;;;;18.20;18.00;;;;;26.66;54.43;98582.31;6065883;28;96644;-66
2021/07/19 00:56:14;;;;;;;;;21.00;19.00;;;;;26.84;54.79;98616.22;6050159;28;96907;-64
2021/07/19 00:59:22;;;;;;;;;21.60;20.00;;;;;26.89;54.51;98618.00;6069980;28;96419;-65
2021/07/19 01:02:28;;;;;;;;;18.60;18.00;;;;;26.85;54.08;98612.31;6075373;28;96631;-64
2021/07/19 01:05:32;;;;;;;;;21.00;19.00;;;;;26.90;54.09;98622.41;6064116;28;98185;-66
2021/07/19 01:08:38;;;;;;;;;19.00;17.00;;;;;26.89;54.08;98624.34;6062464;28;97465;-66
2021/07/19 01:11:43;;;;;;;;;20.00;17.60;;;;;26.90;53.96;98625.16;6089745;28;96645;-65
2021/07/19 01:14:48;;;;;;;;;20.60;19.00;;;;;26.90;53.30;98609.38;6088903;28;96482;-63
2021/07/19 01:17:53;;;;;;;;;20.00;19.00;;;;;26.90;53.41;98611.31;6072617;28;97512;-65
2021/07/19 01:21:35;;;;;;;;;17.40;16.40;;;;;26.92;53.04;98617.34;6056554;28;97157;-65
2021/07/19 01:24:57;;;;;;;;;16.00;15.00;;;;;26.88;51.00;98622.72;6033986;28;97034;-66
2021/07/19 01:28:10;;;;;;;;;18.00;14.00;;;;;26.91;51.24;98624.03;6072991;28;96591;-63
2021/07/19 01:31:18;;;;;;;;;14.50;13.00;;;;;26.82;50.82;98598.34;6080716;28;96627;-63
2021/07/19 01:34:24;;;;;;;;;15.00;14.00;;;;;26.95;50.09;98619.44;6064727;28;96680;-64
2021/07/19 01:37:31;;;;;;;;;12.60;11.60;;;;;26.98;49.95;98618.75;6080222;28;98533;-65
2021/07/19 01:40:46;;;;;;;;;12.50;11.00;;;;;26.99;48.94;98615.66;6047985;28;97410;-65
2021/07/19 01:43:54;;;;;;;;;10.75;10.75;;;;;27.03;48.25;98626.84;6071227;28;96928;-65
2021/07/19 01:47:00;;;;;;;;;9.75;9.00;;;;;27.05;48.14;98619.84;6044037;28;98495;-64
2021/07/19 01:50:07;;;;;;;;;11.00;10.00;;;;;27.09;47.88;98615.25;6084036;28;96960;-65
2021/07/19 01:53:31;;;;;;;;;9.00;9.00;;;;;27.04;47.86;98612.69;6068002;28;96790;-65
2021/07/19 01:56:37;;;;;;;;;9.50;8.00;;;;;27.03;47.15;98618.56;6052491;28;96418;-64
2021/07/19 01:59:43;;;;;;;;;9.00;8.00;;;;;27.03;46.94;98616.59;6067677;28;97260;-66
2021/07/19 02:03:07;;;;;;;;;10.00;9.00;;;;;27.00;47.29;98622.00;6070215;28;97956;-64
2021/07/19 02:06:16;;;;;;;;;10.00;9.00;;;;;27.02;47.52;98626.06;6056725;28;97005;-64
2021/07/19 02:09:31;;;;;;;;;9.00;8.00;;;;;27.00;47.16;98639.41;6057479;28;97235;-65
2021/07/19 02:12:55;;;;;;;;;7.50;7.25;;;;;26.99;47.42;98645.28;6059376;28;97466;-65
2021/07/19 06:59:22;;;;;;;;;12.20;12.00;;;;;29.59;42.43;98740.88;6115734;28;98196;-65
2021/07/19 07:02:26;;;;;;;;;13.00;12.00;;;;;29.51;42.16;98736.28;6115501;28;97404;-63
2021/07/19 07:05:30;;;;;;;;;12.00;11.00;;;;;29.73;43.27;98745.25;6122980;28;98041;-63
2021/07/19 07:08:33;;;;;;;;;13.60;11.60;;;;;29.85;42.90;98746.03;6119672;28;98849;-65
2021/07/19 07:11:36;;;;;;;;;12.00;11.00;;;;;29.92;42.50;98740.72;6125965;28;97510;-66
2021/07/19 07:14:41;;;;;;;;;14.00;12.00;;;;;29.88;42.39;98753.66;6113748;28;98174;-65
2021/07/19 07:17:44;;;;;;;;;12.00;11.00;;;;;29.76;41.68;98747.34;6087454;28;96843;-65
2021/07/19 07:20:48;;;;;;;;;11.60;11.00;;;;;29.65;41.76;98749.78;6073072;28;97995;-64
2021/07/19 07:23:51;;;;;;;;;14.00;12.00;;;;;29.56;42.51;98758.28;6096365;28;97839;-65
2021/07/19 07:26:54;;;;;;;;;11.00;11.00;;;;;29.59;42.43;98745.63;6096300;28;97554;-65
2021/07/19 07:29:59;;;;;;;;;13.50;12.00;;;;;29.57;42.49;98739.59;6090872;28;97530;-65
2021/07/19 07:33:03;;;;;;;;;14.00;13.00;;;;;29.62;42.45;98744.91;6107389;28;97491;-64
2021/07/19 07:36:07;;;;;;;;;12.00;12.00;;;;;29.64;43.21;98742.63;6076157;28;97289;-65
2021/07/19 07:39:10;;;;;;;;;12.00;12.00;;;;;29.61;42.82;98746.09;6102721;28;96770;-65
2021/07/19 07:42:14;;;;;;;;;15.00;14.00;;;;;29.63;43.22;98750.13;6103072;28;97205;-65
2021/07/19 07:45:19;;;;;;;;;12.00;12.00;;;;;29.62;42.63;98742.16;6086507;28;99711;-65
2021/07/19 07:48:26;;;;;;;;;10.40;10.00;;;;;29.63;43.49;98739.03;6102937;28;97592;-64
2021/07/19 07:51:29;;;;;;;;;12.60;11.00;;;;;29.63;43.06;98733.47;6089808;28;96451;-66
2021/07/19 07:54:32;;;;;;;;;12.50;12.00;;;;;29.77;43.21;98737.81;6104613;28;97042;-66
2021/07/19 07:57:36;;;;;;;;;12.75;11.00;;;;;30.00;42.17;98736.19;6097538;28;97463;-65
2021/07/19 08:00:41;;;;;;;;;14.80;13.80;;;;;30.11;42.07;98738.09;6078614;28;97310;-66
2021/07/19 08:03:44;;;;;;;;;11.20;11.20;;;;;30.15;41.53;98723.50;6072570;28;98652;-66
2021/07/19 08:06:48;;;;;;;;;16.00;14.40;;;;;30.34;41.98;98741.13;6089015;28;97493;-64
2021/07/19 08:09:51;;;;;;;;;14.00;13.00;;;;;30.36;41.34;98740.75;6080438;28;99552;-66
2021/07/19 08:12:55;;;;;;;;;14.00;13.00;;;;;30.30;40.89;98734.63;6106066;28;97228;-65
2021/07/19 08:16:00;;;;;;;;;11.50;11.00;;;;;30.24;41.59;98715.78;6079118;28;97452;-65
2021/07/19 08:19:04;;;;;;;;;12.00;11.00;;;;;30.49;40.91;98734.81;6086198;28;98053;-65
2021/07/19 08:22:12;;;;;;;;;15.00;12.50;;;;;30.59;40.90;98729.88;6098272;28;97613;-65
2021/07/19 08:25:15;;;;;;;;;10.00;10.00;;;;;30.67;40.90;98731.69;6066694;28;97864;-66
2021/07/19 08:28:18;;;;;;;;;12.80;11.80;;;;;30.79;41.09;98743.53;6073691;28;97560;-65
2021/07/19 08:31:24;;;;;;;;;13.00;12.40;;;;;30.81;40.64;98730.06;6089936;28;97414;-64
2021/07/19 08:34:27;;;;;;;;;12.00;11.50;;;;;30.93;40.78;98732.78;6064541;28;98441;-66
2021/07/19 08:37:31;;;;;;;;;17.00;15.50;;;;;31.08;40.32;98730.38;6089394;28;96540;-64
2021/07/19 08:40:34;;;;;;;;;12.75;12.00;;;;;31.17;40.21;98729.00;6069608;28;97018;-64
2021/07/19 08:43:38;;;;;;;;;13.00;12.00;;;;;31.27;40.23;98731.22;6096776;28;97089;-64
2021/07/19 08:46:43;;;;;;;;;12.00;12.00;;;;;31.42;39.22;98733.16;6096677;28;96472;-65
2021/07/19 08:49:46;;;;;;;;;11.00;11.00;;;;;31.67;38.78;98724.56;6106538;28;96715;-66
2021/07/19 08:52:51;;;;;;;;;13.00;12.00;;;;;31.86;38.29;98723.81;6096868;28;96772;-65
2021/07/19 08:55:56;;;;;;;;;13.00;11.67;;;;;32.07;37.69;98724.22;6077485;28;97913;-65
2021/07/19 08:58:59;;;;;;;;;12.60;12.00;;;;;31.86;38.19;98718.22;6070679;28;99048;-66
2021/07/19 09:02:05;;;;;;;;;11.00;11.00;;;;;31.74;38.59;98719.97;6082271;28;97678;-65
2021/07/19 09:05:09;;;;;;;;;12.00;11.00;;;;;31.61;39.02;98712.94;6094966;28;97211;-65
2021/07/19 09:08:12;;;;;;;;;13.00;11.60;;;;;31.61;38.96;98714.91;6077400;28;96622;-64
2021/07/19 09:11:15;;;;;;;;;12.75;12.50;;;;;31.52;39.32;98712.28;6087809;28;97780;-66
2021/07/19 09:14:19;;;;;;;;;15.00;12.00;;;;;31.69;38.90;98711.91;6073493;28;98557;-64
2021/07/19 09:17:28;;;;;;;;;11.00;10.00;;;;;31.97;39.26;98705.28;6086203;28;97980;-64
2021/07/19 09:20:33;;;;;;;;;13.00;13.00;;;;;32.19;37.58;98708.19;6095066;28;97922;-65
2021/07/19 09:23:37;;;;;;;;;12.00;10.60;;;;;32.37;37.25;98699.34;6095801;28;97465;-65
2021/07/19 09:26:43;;;;;;;;;12.75;11.25;;;;;32.46;37.01;98697.91;6097449;28;96544;-65
2021/07/19 09:29:46;;;;;;;;;12.25;12.25;;;;;32.48;37.28;98694.75;6105544;28;97523;-66
2021/07/19 09:32:55;;;;;;;;;12.40;12.00;;;;;32.81;37.84;98691.38;6103305;28;97935;-65
2021/07/19 09:36:01;;;;;;;;;12.00;11.80;;;;;33.39;36.99;98694.69;6091392;28;96752;-67
2021/07/19 09:39:09;;;;;;;;;14.00;14.00;;;;;33.98;35.88;98698.69;6096143;28;97501;-65
2021/07/19 09:42:15;;;;;;;;;12.00;11.60;;;;;34.35;35.45;98691.97;6089023;28;97751;-66
2021/07/19 09:45:25;;;;;;;;;14.00;12.00;;;;;34.50;34.46;98689.31;6103879;28;96662;-65
2021/07/19 09:48:29;;;;;;;;;13.00;12.00;;;;;34.31;33.90;98681.91;6069712;28;96849;-66
2021/07/19 09:51:35;;;;;;;;;10.25;9.00;;;;;34.12;34.07;98691.25;6105195;28;96467;-67
2021/07/19 09:54:58;;;;;;;;;11.50;10.00;;;;;33.91;33.70;98675.06;6072881;28;97495;-67
2021/07/19 09:58:03;;;;;;;;;12.00;11.00;;;;;33.89;34.78;98676.63;6091508;28;97446;-65
2021/07/19 10:01:07;;;;;;;;;14.00;12.00;;;;;34.25;35.32;98672.25;6095919;28;97108;-65
2021/07/19 10:04:14;;;;;;;;;11.00;10.25;;;;;34.30;34.27;98667.13;6095473;28;97477;-64
2021/07/19 10:07:23;;;;;;;;;12.00;10.50;;;;;34.40;33.91;98664.81;6076736;28;98967;-66
2021/07/19 10:10:34;;;;;;;;;11.00;10.00;;;;;34.20;34.29;98665.03;6098121;28;97586;-66
2021/07/19 10:13:38;;;;;;;;;11.00;11.00;;;;;33.96;34.48;98664.72;6091120;28;96849;-65
2021/07/19 10:16:42;;;;;;;;;12.20;12.00;;;;;33.76;34.25;98662.09;6072599;28;98485;-66
2021/07/19 10:19:48;;;;;;;;;12.33;10.00;;;;;33.63;34.02;98657.88;6077863;28;97435;-66
2021/07/19 10:22:52;;;;;;;;;9.40;9.00;;;;;33.57;33.61;98656.63;6075331;28;97398;-65
2021/07/19 10:25:56;;;;;;;;;10.80;9.00;;;;;33.75;33.53;98652.09;6091252;28;99620;-65
2021/07/19 10:29:01;;;;;;;;;9.60;8.00;;;;;33.66;33.05;98642.34;6095782;28;96695;-66
2021/07/19 10:32:06;;;;;;;;;9.67;9.67;;;;;34.05;33.92;98640.03;6081346;28;97511;-67
2021/07/19 10:35:13;;;;;;;;;10.00;9.00;;;;;34.09;32.79;98644.47;6077719;28;96913;-66
2021/07/19 10:38:21;;;;;;;;;9.50;8.00;;;;;34.25;32.40;98641.50;6105741;28;96601;-65
2021/07/19 10:41:25;;;;;;;;;11.00;11.00;;;;;34.17;32.94;98636.97;6090438;28;96627;-66
2021/07/19 10:44:33;;;;;;;;;9.50;9.50;;;;;34.06;32.34;98631.28;6085538;28;96877;-65
2021/07/19 10:47:47;;;;;;;;;9.00;9.00;;;;;34.44;31.88;98630.06;6082097;28;97209;-65
2021/07/19 10:50:54;;;;;;;;;12.50;11.50;;;;;34.76;31.42;98628.34;6100497;28;96729;-65
2021/07/19 10:53:57;;;;;;;;;9.20;9.20;;;;;35.05;32.09;98626.56;6068461;28;97880;-65
2021/07/19 10:57:09;;;;;;;;;11.75;10.00;;;;;35.38;31.19;98627.59;6082261;28;97712;-66
2021/07/19 11:00:15;;;;;;;;;10.20;9.00;;;;;35.59;29.50;98628.47;6080261;28;96845;-67
2021/07/19 11:03:21;;;;;;;;;11.00;9.60;;;;;35.62;29.05;98629.72;6108535;28;96519;-65
2021/07/19 11:06:34;;;;;;;;;10.60;10.40;;;;;35.46;29.22;98624.44;6072959;28;96743;-67
2021/07/19 11:09:40;;;;;;;;;9.00;8.00;;;;;35.28;29.59;98617.94;6100686;28;97636;-64
2021/07/19 11:12:50;;;;;;;;;12.00;11.00;;;;;35.34;29.87;98619.16;6106778;28;96657;-64
2021/07/19 11:15:54;;;;;;;;;12.20;10.20;;;;;35.51;30.65;98621.25;6095891;28;96607;-66
2021/07/19 11:19:01;;;;;;;;;11.00;9.00;;;;;35.72;29.88;98620.56;6105382;28;97366;-63
2021/07/19 11:22:08;;;;;;;;;11.00;10.60;;;;;35.52;29.20;98614.44;6095763;28;96829;-66
2021/07/19 11:25:14;;;;;;;;;9.80;9.00;;;;;35.34;29.52;98618.34;6088219;28;98320;-65
2021/07/19 11:28:19;;;;;;;;;11.50;10.50;;;;;35.18;29.56;98613.88;6096208;28;97592;-65
2021/07/19 11:31:27;;;;;;;;;11.00;10.00;;;;;34.91;29.81;98611.66;6107686;28;96555;-64
2021/07/19 11:34:30;;;;;;;;;10.50;10.00;;;;;34.76;30.91;98619.16;6090386;28;97109;-66
2021/07/19 11:37:36;;;;;;;;;10.40;10.00;;;;;34.70;30.31;98601.09;6077233;28;97542;-64
2021/07/19 11:40:45;;;;;;;;;10.20;9.60;;;;;34.68;29.53;98606.31;6099919;28;96496;-66
2021/07/19 11:43:50;;;;;;;;;11.00;10.00;;;;;34.95;29.91;98598.47;6091521;28;97112;-66
2021/07/19 11:46:58;;;;;;;;;10.00;9.00;;;;;34.87;29.20;98589.22;6107461;28;97036;-66
2021/07/19 11:50:04;;;;;;;;;13.00;11.80;;;;;34.94;28.47;98596.88;6096687;28;97500;-66
2021/07/19 11:53:10;;;;;;;;;11.67;9.00;;;;;34.81;28.96;98579.56;6078236;28;97531;-65
2021/07/19 11:56:13;;;;;;;;;12.00;10.00;;;;;34.68;27.69;98586.69;6066656;28;97947;-66
2021/07/19 11:59:20;;;;;;;;;11.25;10.00;;;;;34.97;28.71;98585.69;6106262;28;97492;-65
2021/07/19 12:02:28;;;;;;;;;12.40;11.00;;;;;35.35;27.87;98581.53;6093401;28;97375;-65
2021/07/19 12:05:32;;;;;;;;;13.50;11.00;;;;;35.49;27.95;98586.38;6097530;28;97389;-66
2021/07/19 12:08:37;;;;;;;;;13.60;11.60;;;;;35.39;28.18;98576.72;6082978;28;96674;-66
2021/07/19 12:11:41;;;;;;;;;12.40;11.00;;;;;35.25;28.08;98581.47;6106152;28;97531;-66
2021/07/19 12:14:46;;;;;;;;;11.60;11.00;;;;;35.06;27.75;98574.94;6073148;28;96960;-67
2021/07/19 12:17:58;;;;;;;;;14.20;13.80;;;;;34.93;28.88;98570.88;6069930;28;97909;-65
2021/07/19 12:21:04;;;;;;;;;12.80;11.80;;;;;34.78;27.95;98567.16;6055446;28;97949;-64
2021/07/19 12:24:09;;;;;;;;;15.00;11.00;;;;;34.65;29.41;98565.06;6076679;28;98506;-65
2021/07/19 12:27:13;;;;;;;;;11.50;10.50;;;;;34.43;28.97;98575.28;6089412;28;97377;-65
2021/07/19 12:30:16;;;;;;;;;14.60;13.00;;;;;34.27;29.12;98569.13;6102637;28;96548;-66
2021/07/19 12:33:23;;;;;;;;;18.20;16.80;;;;;34.11;27.85;98566.56;6087714;28;98023;-65
2021/07/19 12:36:26;;;;;;;;;17.00;16.00;;;;;34.02;27.79;98574.47;6088875;28;97113;-67
2021/07/19 12:39:35;;;;;;;;;15.00;14.00;;;;;34.03;27.88;98570.47;6088042;28;96510;-66
2021/07/19 12:42:38;;;;;;;;;17.00;17.00;;;;;33.91;27.15;98562.38;6079183;28;96823;-65
2021/07/19 12:45:42;;;;;;;;;17.50;14.50;;;;;33.92;27.51;98553.59;6085028;28;98535;-67
2021/07/19 12:48:48;;;;;;;;;16.20;15.60;;;;;33.76;27.03;98530.69;6098185;28;96722;-66
2021/07/19 12:51:57;;;;;;;;;15.67;14.67;;;;;33.87;27.22;98548.34;6097401;28;97452;-65
2021/07/19 12:55:24;;;;;;;;;13.75;12.75;;;;;34.25;27.19;98543.53;6105553;28;97159;-66
2021/07/19 12:58:27;;;;;;;;;14.00;14.00;;;;;34.55;27.08;98546.97;6101624;28;96944;-65
2021/07/19 13:01:36;;;;;;;;;16.40;13.00;;;;;34.67;27.78;98538.28;6090759;28;96678;-65
2021/07/19 13:04:39;;;;;;;;;17.80;15.60;;;;;34.95;26.55;98540.44;6087228;28;97597;-65
2021/07/19 13:07:44;;;;;;;;;15.75;15.00;;;;;35.16;26.05;98537.75;6106292;28;96716;-66
2021/07/19 13:10:49;;;;;;;;;14.00;13.00;;;;;35.21;25.41;98539.41;6084699;28;96945;-66
2021/07/19 13:13:52;;;;;;;;;17.00;16.00;;;;;35.18;25.08;98529.81;6081484;28;97619;-66
2021/07/19 13:17:00;;;;;;;;;15.00;14.00;;;;;35.37;25.72;98531.47;6096328;28;98060;-67
2021/07/19 13:20:07;;;;;;;;;15.00;12.60;;;;;35.55;26.27;98532.34;6080666;28;98450;-66
2021/07/19 13:23:13;;;;;;;;;14.00;13.00;;;;;35.61;25.00;98525.16;6076204;28;97595;-66
2021/07/19 13:26:18;;;;;;;;;15.00;14.00;;;;;35.80;25.31;98524.00;6068727;28;96461;-66
2021/07/19 13:29:28;;;;;;;;;16.00;13.00;;;;;35.94;25.85;98524.03;6089388;28;97393;-67
2021/07/19 13:32:31;;;;;;;;;13.60;13.40;;;;;35.81;25.05;98522.00;6087855;28;97249;-65
2021/07/19 13:35:39;;;;;;;;;14.00;13.25;;;;;35.64;24.58;98524.34;6092341;28;96599;-65
2021/07/19 13:38:44;;;;;;;;;16.00;14.00;;;;;35.73;24.37;98523.19;6093242;28;98488;-65
2021/07/19 13:41:49;;;;;;;;;16.00;14.00;;;;;35.85;24.58;98523.63;6089055;28;96548;-66
2021/07/19 13:44:53;;;;;;;;;17.40;15.00;;;;;35.85;24.40;98529.22;6094453;28;97513;-65
2021/07/19 13:47:57;;;;;;;;;15.60;14.00;;;;;35.86;24.59;98524.41;6085745;28;96498;-65
2021/07/19 13:51:02;;;;;;;;;14.80;13.00;;;;;35.83;24.17;98528.81;6111039;28;96683;-66
2021/07/19 13:54:05;;;;;;;;;17.00;14.00;;;;;35.74;24.13;98525.59;6078543;28;98025;-66
2021/07/19 13:57:10;;;;;;;;;16.00;13.80;;;;;35.57;24.10;98521.53;6100882;28;96818;-65
2021/07/19 14:00:16;;;;;;;;;13.75;13.00;;;;;35.46;24.69;98519.88;6106556;28;97466;-65
2021/07/19 14:03:20;;;;;;;;;17.00;15.50;;;;;35.42;24.32;98521.88;6078695;28;96935;-65
2021/07/19 14:06:24;;;;;;;;;17.00;16.00;;;;;35.15;24.23;98516.53;6091456;28;97596;-65
2021/07/19 14:09:28;;;;;;;;;16.00;14.75;;;;;35.28;25.91;98507.81;6092244;28;96774;-66
2021/07/19 14:12:33;;;;;;;;;18.00;15.00;;;;;35.47;24.49;98518.69;6097063;28;96893;-67
2021/07/19 14:15:37;;;;;;;;;15.00;15.00;;;;;35.52;24.55;98519.13;6108469;28;97549;-66
2021/07/19 14:18:40;;;;;;;;;18.33;15.00;;;;;35.36;23.79;98521.47;6085553;28;97466;-66
2021/07/19 14:21:43;;;;;;;;;16.00;15.00;;;;;35.31;23.36;98516.22;6078644;28;97680;-65
2021/07/19 14:24:47;;;;;;;;;16.60;16.00;;;;;35.23;24.43;98522.22;6072634;28;97968;-66
2021/07/19 14:27:53;;;;;;;;;18.40;16.60;;;;;35.18;24.28;98529.00;6093011;28;96687;-66
2021/07/19 14:30:57;;;;;;;;;20.00;16.60;;;;;35.25;25.77;98506.59;6108414;28;98002;-66
2021/07/19 14:34:02;;;;;;;;;16.00;15.80;;;;;35.42;24.59;98511.47;6082805;28;97751;-66
2021/07/19 14:37:05;;;;;;;;;19.00;18.00;;;;;35.48;24.56;98518.28;6079522;28;96703;-65
2021/07/19 14:40:11;;;;;;;;;22.00;18.00;;;;;35.63;25.02;98516.31;6053465;28;98809;-66
2021/07/19 14:43:16;;;;;;;;;21.00;19.00;;;;;35.70;24.34;98507.97;6089051;28;97201;-67
2021/07/19 14:46:19;;;;;;;;;26.50;22.50;;;;;35.69;23.23;98505.53;6102114;28;96777;-66
2021/07/19 14:49:22;;;;;;;;;23.75;21.00;;;;;35.74;24.12;98507.97;6103232;28;96571;-67
2021/07/19 14:52:25;;;;;;;;;25.20;23.80;;;;;35.73;24.03;98507.16;6090753;28;96682;-65
2021/07/19 14:55:31;;;;;;;;;26.40;23.40;;;;;35.71;24.19;98503.97;6099254;28;97476;-67
2021/07/19 14:58:36;;;;;;;;;26.40;24.40;;;;;35.58;23.25;98506.28;6088711;28;96634;-67
2021/07/19 15:01:39;;;;;;;;;31.00;25.00;;;;;35.44;23.12;98497.84;6086816;28;97802;-67
2021/07/19 15:04:43;;;;;;;;;29.25;26.50;;;;;35.38;23.44;98493.03;6089566;28;98135;-65
2021/07/19 15:07:46;;;;;;;;;29.80;26.60;;;;;35.26;23.28;98491.41;6074186;28;96689;-67
2021/07/19 15:10:49;;;;;;;;;30.00;26.67;;;;;35.17;23.89;98488.97;6071181;28;97514;-66
2021/07/19 15:13:54;;;;;;;;;27.00;24.00;;;;;35.12;24.81;98492.13;6094529;28;97029;-68
2021/07/19 15:16:57;;;;;;;;;26.25;25.25;;;;;35.07;25.80;98494.50;6090301;28;96622;-65
2021/07/19 15:20:01;;;;;;;;;28.50;24.50;;;;;34.95;24.50;98484.41;6072612;28;96684;-65
2021/07/19 15:23:05;;;;;;;;;29.60;25.40;;;;;34.85;25.00;98487.16;6095803;28;96639;-64
2021/07/19 15:26:08;;;;;;;;;29.60;26.80;;;;;34.80;25.15;98491.16;6087062;28;97453;-65
2021/07/19 15:29:13;;;;;;;;;29.40;26.80;;;;;34.74;24.59;98489.94;6099169;28;97539;-65
2021/07/19 15:32:16;;;;;;;;;27.00;25.50;;;;;34.52;24.30;98488.97;6089149;28;97505;-65
2021/07/19 15:35:20;;;;;;;;;29.00;26.20;;;;;34.43;24.62;98490.50;6060092;28;97605;-64
2021/07/19 15:38:23;;;;;;;;;27.40;25.40;;;;;34.31;23.93;98484.00;6107849;28;98146;-67
2021/07/19 15:41:27;;;;;;;;;30.00;26.00;;;;;34.18;25.27;98485.53;6089990;28;96784;-66
2021/07/19 15:44:32;;;;;;;;;28.00;26.00;;;;;34.11;25.92;98491.00;6088898;28;97362;-66
2021/07/19 15:47:35;;;;;;;;;25.25;25.00;;;;;34.11;26.29;98487.44;6093593;28;97509;-65
2021/07/19 15:50:38;;;;;;;;;28.60;24.60;;;;;34.07;26.43;98492.19;6096262;28;97628;-64
2021/07/19 15:53:42;;;;;;;;;30.00;25.00;;;;;34.03;26.88;98480.97;6094324;28;97294;-66
2021/07/19 15:56:45;;;;;;;;;25.00;23.00;;;;;33.97;26.38;98485.31;6097338;28;97479;-65
2021/07/19 15:59:50;;;;;;;;;25.75;22.75;;;;;33.82;27.15;98481.56;6082599;28;97107;-67
2021/07/19 16:02:53;;;;;;;;;23.40;21.40;;;;;33.68;27.06;98489.84;6050006;28;98147;-65
2021/07/19 16:05:57;;;;;;;;;25.00;22.00;;;;;33.57;27.54;98480.53;6099133;28;97039;-66
2021/07/19 16:09:00;;;;;;;;;20.40;19.00;;;;;33.49;26.87;98487.22;6082153;28;96687;-66
2021/07/19 16:12:05;;;;;;;;;18.00;17.00;;;;;33.37;27.36;98495.88;6107867;28;97472;-66
2021/07/19 16:15:13;;;;;;;;;19.60;18.00;;;;;33.29;27.48;98500.56;6096066;28;96688;-66
2021/07/19 16:18:17;;;;;;;;;23.00;20.00;;;;;33.23;27.07;98492.91;6104305;28;96986;-67
2021/07/19 16:21:21;;;;;;;;;19.40;16.80;;;;;33.20;27.19;98493.66;6103311;28;97214;-66
2021/07/19 16:24:25;;;;;;;;;24.00;20.00;;;;;33.21;28.22;98503.66;6097583;28;96616;-64
2021/07/19 16:27:28;;;;;;;;;16.00;14.40;;;;;33.24;28.50;98498.09;6082379;28;98041;-66
2021/07/19 16:30:33;;;;;;;;;12.80;12.80;;;;;33.20;29.03;98494.47;6098104;28;97486;-66
2021/07/19 16:33:37;;;;;;;;;13.00;11.60;;;;;33.12;29.11;98501.13;6106963;28;97899;-65
2021/07/19 16:36:40;;;;;;;;;14.00;13.00;;;;;32.99;29.17;98513.72;6098098;28;96556;-64
2021/07/19 16:39:46;;;;;;;;;14.00;13.00;;;;;32.85;29.36;98508.75;6107343;28;97491;-65
2021/07/19 16:42:49;;;;;;;;;13.40;12.40;;;;;32.70;29.20;98514.50;6088715;28;97412;-65
2021/07/19 16:48:56;;;;;;;;;13.60;12.00;;;;;32.33;30.05;98509.56;6096517;28;97043;-66
2021/07/19 16:51:59;;;;;;;;;13.00;11.00;;;;;32.19;30.16;98515.72;6098224;28;97118;-64
2021/07/19 16:55:03;;;;;;;;;13.00;12.00;;;;;32.04;30.45;98521.41;6064311;28;97272;-66
2021/07/19 16:58:06;;;;;;;;;13.80;12.00;;;;;31.97;30.81;98519.28;6098333;28;96609;-65
2021/07/19 17:01:11;;;;;;;;;15.00;14.00;;;;;31.83;30.69;98513.47;6105191;28;96548;-66
2021/07/19 17:04:15;;;;;;;;;13.60;13.00;;;;;31.84;31.27;98520.66;6101173;28;96676;-64
2021/07/19 17:07:18;;;;;;;;;12.00;11.00;;;;;31.76;31.49;98519.72;6095471;28;97449;-64
2021/07/19 17:10:23;;;;;;;;;16.75;16.00;;;;;31.77;30.83;98526.88;6101897;28;96682;-64
2021/07/19 17:13:27;;;;;;;;;15.00;13.00;;;;;31.69;31.24;98533.53;6093027;28;96846;-64
2021/07/19 17:16:32;;;;;;;;;12.00;11.75;;;;;31.68;31.12;98528.31;6103032;28;97608;-66
2021/07/19 17:19:36;;;;;;;;;14.00;14.00;;;;;31.64;31.55;98530.22;6092059;28;97436;-66
2021/07/19 17:22:41;;;;;;;;;12.00;12.00;;;;;31.50;31.43;98532.72;6089401;28;97389;-66
2021/07/19 17:25:44;;;;;;;;;18.00;15.60;;;;;31.30;32.28;98535.50;6103902;28;97653;-65
2021/07/19 17:28:47;;;;;;;;;14.40;14.00;;;;;31.15;33.71;98550.31;6098014;28;96489;-65
2021/07/19 17:31:52;;;;;;;;;13.00;12.80;;;;;30.96;33.74;98556.66;6104362;28;96600;-64
2021/07/19 17:34:55;;;;;;;;;12.40;12.00;;;;;30.71;35.12;98554.47;6089514;28;96703;-64
2021/07/19 17:37:58;;;;;;;;;15.25;13.00;;;;;30.47;35.59;98547.97;6104683;28;97679;-65
2021/07/19 17:41:03;;;;;;;;;11.00;10.20;;;;;30.16;36.48;98555.47;6089662;28;97086;-65
2021/07/19 17:44:07;;;;;;;;;15.00;12.00;;;;;29.86;37.81;98555.88;6099527;28;96628;-66
2021/07/19 17:47:12;;;;;;;;;13.00;12.00;;;;;29.62;37.71;98562.38;6074005;28;96805;-66
2021/07/19 17:50:18;;;;;;;;;12.00;11.50;;;;;29.45;38.06;98573.81;6093325;28;97530;-65
2021/07/19 17:53:22;;;;;;;;;12.33;11.33;;;;;29.33;38.38;98575.81;6105667;28;97485;-65
2021/07/19 17:56:27;;;;;;;;;12.00;11.00;;;;;29.18;38.51;98585.66;6101089;28;96854;-65
2021/07/19 17:59:31;;;;;;;;;15.00;12.75;;;;;29.03;38.61;98575.31;6107168;28;97512;-66
2021/07/19 18:02:35;;;;;;;;;10.25;9.50;;;;;28.88;39.34;98578.81;6081899;28;96838;-66
2021/07/19 18:05:39;;;;;;;;;10.00;9.00;;;;;28.78;39.42;98588.44;6104678;28;96469;-64
2021/07/19 18:08:43;;;;;;;;;13.40;12.00;;;;;28.65;38.76;98590.34;6070965;28;96799;-65
2021/07/19 18:11:48;;;;;;;;;13.00;12.00;;;;;28.47;39.16;98596.50;6104370;28;96624;-64
2021/07/19 18:14:51;;;;;;;;;11.00;10.00;;;;;28.37;39.08;98586.66;6095744;28;96762;-65
2021/07/19 18:17:57;;;;;;;;;10.00;10.00;;;;;28.26;39.18;98583.53;6059949;28;99553;-65
2021/07/19 18:21:01;;;;;;;;;10.80;10.00;;;;;28.29;39.16;98595.91;6087347;28;97952;-67
2021/07/19 18:24:14;;;;;;;;;12.00;10.00;;;;;28.20;39.20;98601.53;6098167;28;97305;-64
2021/07/19 18:30:48;;;;;;;;;12.00;10.00;;;;;28.01;39.27;98601.25;6033488;28;96759;-66
2021/07/19 18:33:52;;;;;;;;;9.75;9.75;;;;;27.91;39.43;98596.94;6034271;28;97536;-66
2021/07/19 18:36:56;;;;;;;;;10.60;9.00;;;;;27.76;39.50;98599.59;6012634;28;98675;-65
2021/07/19 18:40:00;;;;;;;;;10.00;9.00;;;;;27.77;39.63;98603.94;6019600;28;96578;-65
2021/07/19 18:43:04;;;;;;;;;9.00;9.00;;;;;27.73;39.96;98612.13;6026628;28;97504;-66
2021/07/19 18:46:09;;;;;;;;;12.00;11.00;;;;;27.70;39.95;98621.13;6032444;28;96590;-65
2021/07/19 18:49:13;;;;;;;;;12.00;11.00;;;;;27.65;39.92;98628.84;6031644;28;97011;-66
2021/07/19 18:52:18;;;;;;;;;12.00;10.40;;;;;27.65;40.04;98640.75;6019124;28;97194;-66
2021/07/19 18:55:22;;;;;;;;;11.00;10.00;;;;;27.64;40.02;98641.06;6034202;28;97530;-66
2021/07/19 18:58:25;;;;;;;;;11.75;10.75;;;;;27.64;40.45;98652.16;6001253;29;96800;-66
2021/07/19 19:01:29;;;;;;;;;10.00;10.00;;;;;27.63;40.29;98653.28;6034777;28;97496;-66
2021/07/19 19:04:34;;;;;;;;;11.60;11.00;;;;;27.67;40.70;98651.47;6006628;29;97679;-66